createdAt,value
2023-04-09T00:00:02.777Z,7.08
2023-04-09T00:01:02.654Z,7.12
2023-04-09T00:02:01.665Z,7.15
2023-04-09T00:03:01.923Z,7.19
2023-04-09T00:04:01.947Z,7.19
2023-04-09T00:05:01.713Z,7.20
2023-04-09T00:06:01.664Z,7.20
2023-04-09T00:07:02.346Z,7.20
2023-04-09T00:08:02.622Z,7.20
2023-04-09T00:09:02.807Z,7.20
2023-04-09T00:10:02.411Z,7.21
2023-04-09T00:11:02.292Z,7.22
2023-04-09T00:12:02.206Z,7.23
2023-04-09T00:13:02.068Z,7.23
2023-04-09T00:14:02.097Z,7.25
2023-04-09T00:15:02.124Z,7.26
2023-04-09T00:16:02.156Z,7.27
2023-04-09T00:17:02.504Z,7.16
2023-04-09T00:18:02.082Z,7.19
2023-04-09T00:19:02.479Z,7.19
2023-04-09T00:20:01.983Z,7.19
2023-04-09T00:21:02.360Z,7.20
2023-04-09T00:22:02.444Z,7.13
2023-04-09T00:23:02.859Z,7.08
2023-04-09T00:24:02.746Z,7.09
2023-04-09T00:25:02.942Z,7.05
2023-04-09T00:26:02.599Z,7.07
2023-04-09T00:27:02.561Z,7.03
2023-04-09T00:28:02.652Z,7.05
2023-04-09T00:29:02.569Z,7.01
2023-04-09T00:30:02.472Z,6.99
2023-04-09T00:31:03.072Z,6.97
2023-04-09T00:32:02.093Z,6.98
2023-04-09T00:33:02.076Z,7.01
2023-04-09T00:34:02.157Z,7.03
2023-04-09T00:35:01.910Z,7.03
2023-04-09T00:36:01.820Z,7.06
2023-04-09T00:37:02.119Z,7.07
2023-04-09T00:38:02.068Z,7.10
2023-04-09T00:39:02.452Z,7.14
2023-04-09T00:40:02.398Z,7.18
2023-04-09T00:41:01.982Z,7.20
2023-04-09T00:42:02.435Z,7.21
2023-04-09T00:43:02.693Z,7.23
2023-04-09T00:44:02.372Z,7.25
2023-04-09T00:45:03.035Z,7.28
2023-04-09T00:46:02.735Z,7.32
2023-04-09T00:47:01.645Z,7.34
2023-04-09T00:48:01.926Z,7.34
2023-04-09T00:49:01.771Z,7.31
2023-04-09T00:50:01.595Z,7.29
2023-04-09T00:51:01.554Z,7.26
2023-04-09T00:52:02.353Z,7.26
2023-04-09T00:53:02.197Z,7.28
2023-04-09T00:54:02.048Z,7.28
2023-04-09T00:55:02.197Z,7.29
2023-04-09T00:56:02.314Z,7.32
2023-04-09T00:57:02.540Z,7.35
2023-04-09T00:58:02.760Z,7.38
2023-04-09T00:59:02.482Z,7.34
2023-04-09T01:00:02.635Z,7.39
2023-04-09T01:01:02.981Z,7.40
2023-04-09T01:02:02.071Z,7.43
2023-04-09T01:03:02.284Z,7.44
2023-04-09T01:04:02.003Z,7.45
2023-04-09T01:05:01.842Z,7.46
2023-04-09T01:06:02.346Z,7.45
2023-04-09T01:07:01.896Z,7.43
2023-04-09T01:08:01.771Z,7.43
2023-04-09T01:09:02.256Z,7.43
2023-04-09T01:10:02.269Z,7.40
2023-04-09T01:11:02.381Z,7.34
2023-04-09T01:12:02.351Z,7.34
2023-04-09T01:13:02.646Z,7.35
2023-04-09T01:14:02.575Z,7.35
2023-04-09T01:15:02.496Z,7.36
2023-04-09T01:16:02.434Z,7.34
2023-04-09T01:17:02.038Z,7.36
2023-04-09T01:18:01.797Z,7.37
2023-04-09T01:19:02.344Z,7.36
2023-04-09T01:20:02.161Z,7.39
2023-04-09T01:21:02.188Z,7.38
2023-04-09T01:22:02.365Z,7.38
2023-04-09T01:23:02.165Z,7.38
2023-04-09T01:24:02.325Z,7.37
2023-04-09T01:25:02.330Z,7.38
2023-04-09T01:26:02.440Z,7.41
2023-04-09T01:27:02.570Z,7.41
2023-04-09T01:28:02.045Z,7.42
2023-04-09T01:29:02.063Z,7.40
2023-04-09T01:30:02.582Z,7.41
2023-04-09T01:31:02.222Z,7.41
2023-04-09T01:32:01.825Z,7.41
2023-04-09T01:33:01.677Z,7.43
2023-04-09T01:34:01.625Z,7.45
2023-04-09T01:35:02.113Z,7.47
2023-04-09T01:36:01.705Z,7.47
2023-04-09T01:37:02.179Z,7.47
2023-04-09T01:38:01.993Z,7.46
2023-04-09T01:39:01.887Z,7.42
2023-04-09T01:40:02.173Z,7.39
2023-04-09T01:41:02.043Z,7.36
2023-04-09T01:42:02.589Z,7.34
2023-04-09T01:43:02.221Z,7.36
2023-04-09T01:44:02.767Z,7.33
2023-04-09T01:45:02.492Z,7.31
2023-04-09T01:46:02.612Z,7.31
2023-04-09T01:47:02.099Z,7.33
2023-04-09T01:48:02.120Z,7.36
2023-04-09T01:49:02.223Z,7.40
2023-04-09T01:50:02.522Z,7.43
2023-04-09T01:51:01.952Z,7.39
2023-04-09T01:52:02.382Z,7.43
2023-04-09T01:53:02.348Z,7.46
2023-04-09T01:54:02.247Z,7.47
2023-04-09T01:55:02.697Z,7.47
2023-04-09T01:56:02.704Z,7.44
2023-04-09T01:57:02.259Z,7.44
2023-04-09T01:58:02.131Z,7.41
2023-04-09T01:59:02.248Z,7.42
2023-04-09T02:00:02.242Z,7.40
2023-04-09T02:01:02.517Z,7.38
2023-04-09T02:02:02.556Z,7.38
2023-04-09T02:03:02.682Z,7.39
2023-04-09T02:04:02.727Z,7.38
2023-04-09T02:05:02.404Z,7.38
2023-04-09T02:06:02.917Z,7.34
2023-04-09T02:07:03.323Z,7.34
2023-04-09T02:08:02.781Z,7.33
2023-04-09T02:09:03.269Z,7.32
2023-04-09T02:10:02.705Z,7.32
2023-04-09T02:11:02.730Z,7.30
2023-04-09T02:12:03.148Z,7.29
2023-04-09T02:13:02.999Z,7.26
2023-04-09T02:14:03.242Z,7.21
2023-04-09T02:15:03.123Z,7.17
2023-04-09T02:16:02.943Z,7.19
2023-04-09T02:17:02.556Z,7.20
2023-04-09T02:18:02.159Z,7.20
2023-04-09T02:19:02.007Z,7.20
2023-04-09T02:20:02.225Z,7.13
2023-04-09T02:21:02.294Z,7.07
2023-04-09T02:22:02.805Z,7.07
2023-04-09T02:23:02.803Z,7.06
2023-04-09T02:24:02.370Z,7.02
2023-04-09T02:25:02.521Z,7.02
2023-04-09T02:26:02.629Z,6.99
2023-04-09T02:27:01.849Z,6.97
2023-04-09T02:28:02.461Z,6.97
2023-04-09T02:29:02.317Z,6.95
2023-04-09T02:30:02.432Z,6.91
2023-04-09T02:31:02.181Z,6.91
2023-04-09T02:32:02.170Z,6.89
2023-04-09T02:33:02.807Z,6.89
2023-04-09T02:34:02.482Z,6.85
2023-04-09T02:35:02.267Z,6.83
2023-04-09T02:36:02.217Z,6.80
2023-04-09T02:37:02.817Z,6.79
2023-04-09T02:38:02.826Z,6.77
2023-04-09T02:39:02.777Z,6.76
2023-04-09T02:40:02.448Z,6.73
2023-04-09T02:41:02.340Z,6.70
2023-04-09T02:42:02.598Z,6.65
2023-04-09T02:43:02.531Z,6.58
2023-04-09T02:44:02.290Z,6.51
2023-04-09T02:45:02.324Z,6.43
2023-04-09T02:46:02.547Z,6.40
2023-04-09T02:47:03.062Z,6.35
2023-04-09T02:48:02.880Z,6.31
2023-04-09T02:49:02.827Z,6.32
2023-04-09T02:50:02.641Z,6.32
2023-04-09T02:51:02.616Z,6.35
2023-04-09T02:52:03.327Z,6.37
2023-04-09T02:53:03.100Z,6.35
2023-04-09T02:54:03.159Z,6.35
2023-04-09T02:55:03.064Z,6.33
2023-04-09T02:56:03.081Z,6.29
2023-04-09T02:57:02.122Z,6.27
2023-04-09T02:58:02.267Z,6.26
2023-04-09T02:59:02.369Z,6.23
2023-04-09T03:00:02.308Z,6.18
2023-04-09T03:01:02.370Z,6.14
2023-04-09T03:02:02.932Z,6.10
2023-04-09T03:03:02.804Z,6.07
2023-04-09T03:04:02.688Z,6.07
2023-04-09T03:05:02.458Z,6.07
2023-04-09T03:06:02.592Z,6.07
2023-04-09T03:07:02.554Z,6.08
2023-04-09T03:08:03.081Z,6.12
2023-04-09T03:09:02.811Z,6.14
2023-04-09T03:10:02.715Z,6.13
2023-04-09T03:11:02.877Z,6.11
2023-04-09T03:12:02.807Z,6.06
2023-04-09T03:13:03.281Z,6.03
2023-04-09T03:14:03.103Z,6.00
2023-04-09T03:15:02.901Z,5.96
2023-04-09T03:16:03.467Z,5.95
2023-04-09T03:17:02.143Z,5.93
2023-04-09T03:18:02.784Z,5.89
2023-04-09T03:19:02.302Z,5.83
2023-04-09T03:20:02.545Z,5.75
2023-04-09T03:21:02.413Z,5.67
2023-04-09T03:22:02.458Z,5.62
2023-04-09T03:23:02.487Z,5.60
2023-04-09T03:24:02.998Z,5.61
2023-04-09T03:25:02.519Z,5.62
2023-04-09T03:26:03.044Z,5.63
2023-04-09T03:27:02.111Z,5.65
2023-04-09T03:28:02.102Z,5.68
2023-04-09T03:29:02.534Z,5.71
2023-04-09T03:30:02.096Z,5.73
2023-04-09T03:31:02.019Z,5.76
2023-04-09T03:32:02.682Z,5.83
2023-04-09T03:33:02.688Z,5.89
2023-04-09T03:34:03.111Z,5.94
2023-04-09T03:35:02.583Z,5.97
2023-04-09T03:36:03.326Z,5.98
2023-04-09T03:37:02.917Z,6.02
2023-04-09T03:38:02.859Z,6.00
2023-04-09T03:39:03.241Z,5.99
2023-04-09T03:40:03.101Z,5.97
2023-04-09T03:41:02.892Z,5.96
2023-04-09T03:42:03.002Z,5.94
2023-04-09T03:43:02.680Z,5.92
2023-04-09T03:44:02.498Z,5.91
2023-04-09T03:45:02.527Z,5.91
2023-04-09T03:46:02.592Z,5.91
2023-04-09T03:47:02.264Z,5.90
2023-04-09T03:48:02.644Z,5.90
2023-04-09T03:49:02.483Z,5.93
2023-04-09T03:50:02.482Z,5.94
2023-04-09T03:51:02.322Z,5.96
2023-04-09T03:52:02.864Z,5.98
2023-04-09T03:53:02.873Z,6.02
2023-04-09T03:54:02.744Z,6.04
2023-04-09T03:55:03.261Z,6.05
2023-04-09T03:56:02.676Z,6.05
2023-04-09T03:57:02.331Z,6.06
2023-04-09T03:58:02.558Z,6.07
2023-04-09T03:59:02.402Z,6.04
2023-04-09T04:00:02.418Z,6.00
2023-04-09T04:01:02.416Z,5.96
2023-04-09T04:02:03.689Z,5.95
2023-04-09T04:03:03.568Z,5.95
2023-04-09T04:04:03.234Z,5.96
2023-04-09T04:05:03.154Z,5.96
2023-04-09T04:06:03.009Z,5.98
2023-04-09T04:07:02.373Z,5.98
2023-04-09T04:08:02.254Z,5.98
2023-04-09T04:09:02.192Z,5.98
2023-04-09T04:10:02.156Z,5.99
2023-04-09T04:11:02.639Z,6.01
2023-04-09T04:12:03.038Z,6.03
2023-04-09T04:13:02.973Z,6.05
2023-04-09T04:14:02.893Z,6.08
2023-04-09T04:15:02.742Z,6.11
2023-04-09T04:16:03.316Z,6.12
2023-04-09T04:17:03.176Z,6.07
2023-04-09T04:18:03.120Z,6.09
2023-04-09T04:19:02.898Z,6.12
2023-04-09T04:20:03.444Z,6.14
2023-04-09T04:21:03.355Z,6.15
2023-04-09T04:22:03.294Z,6.15
2023-04-09T04:23:03.616Z,6.17
2023-04-09T04:24:03.216Z,6.18
2023-04-09T04:25:03.196Z,6.17
2023-04-09T04:26:03.212Z,6.20
2023-04-09T04:27:02.847Z,6.22
2023-04-09T04:28:02.423Z,6.20
2023-04-09T04:29:02.528Z,6.21
2023-04-09T04:30:02.515Z,6.21
2023-04-09T04:31:02.354Z,6.19
2023-04-09T04:32:03.065Z,6.21
2023-04-09T04:33:02.924Z,6.22
2023-04-09T04:34:02.904Z,6.22
2023-04-09T04:35:02.916Z,6.24
2023-04-09T04:36:03.131Z,6.26
2023-04-09T04:37:03.109Z,6.27
2023-04-09T04:38:02.804Z,6.28
2023-04-09T04:39:02.641Z,6.30
2023-04-09T04:40:02.888Z,6.29
2023-04-09T04:41:02.957Z,6.27
2023-04-09T04:42:02.696Z,6.22
2023-04-09T04:43:02.646Z,6.22
2023-04-09T04:44:03.201Z,6.22
2023-04-09T04:45:03.113Z,6.24
2023-04-09T04:46:03.169Z,6.25
2023-04-09T04:47:02.660Z,6.26
2023-04-09T04:48:02.932Z,6.27
2023-04-09T04:49:02.664Z,6.24
2023-04-09T04:50:02.618Z,6.22
2023-04-09T04:51:02.838Z,6.17
2023-04-09T04:52:03.374Z,6.18
2023-04-09T04:53:03.284Z,6.16
2023-04-09T04:54:02.895Z,6.17
2023-04-09T04:55:02.865Z,6.17
2023-04-09T04:56:02.778Z,6.17
2023-04-09T04:57:02.504Z,6.17
2023-04-09T04:58:02.571Z,6.16
2023-04-09T04:59:02.223Z,6.17
2023-04-09T05:00:02.230Z,6.14
2023-04-09T05:01:02.593Z,6.12
2023-04-09T05:02:02.334Z,6.13
2023-04-09T05:03:02.164Z,6.13
2023-04-09T05:04:02.060Z,6.12
2023-04-09T05:05:02.071Z,6.12
2023-04-09T05:06:02.204Z,6.11
2023-04-09T05:07:02.018Z,6.11
2023-04-09T05:08:02.118Z,6.08
2023-04-09T05:09:02.389Z,6.06
2023-04-09T05:10:02.448Z,6.06
2023-04-09T05:11:02.268Z,6.03
2023-04-09T05:12:02.664Z,6.02
2023-04-09T05:13:02.253Z,5.99
2023-04-09T05:14:02.195Z,5.97
2023-04-09T05:15:02.203Z,5.92
2023-04-09T05:16:02.160Z,5.90
2023-04-09T05:17:02.876Z,5.91
2023-04-09T05:18:02.853Z,5.94
2023-04-09T05:19:02.654Z,5.96
2023-04-09T05:20:02.506Z,5.97
2023-04-09T05:21:02.902Z,5.98
2023-04-09T05:22:02.381Z,5.95
2023-04-09T05:23:02.440Z,5.92
2023-04-09T05:24:02.167Z,5.89
2023-04-09T05:25:02.167Z,5.89
2023-04-09T05:26:02.120Z,5.88
2023-04-09T05:27:02.709Z,5.85
2023-04-09T05:28:02.516Z,5.85
2023-04-09T05:29:02.493Z,5.85
2023-04-09T05:30:02.479Z,5.88
2023-04-09T05:31:02.527Z,5.88
2023-04-09T05:32:02.288Z,5.87
2023-04-09T05:33:01.694Z,5.86
2023-04-09T05:34:02.094Z,5.85
2023-04-09T05:35:02.127Z,5.85
2023-04-09T05:36:02.107Z,5.90
2023-04-09T05:37:02.340Z,5.95
2023-04-09T05:38:02.378Z,6.01
2023-04-09T05:39:02.663Z,6.04
2023-04-09T05:40:02.446Z,6.09
2023-04-09T05:41:02.348Z,6.13
2023-04-09T05:42:02.329Z,6.16
2023-04-09T05:43:02.935Z,6.15
2023-04-09T05:44:02.820Z,6.20
2023-04-09T05:45:02.417Z,6.18
2023-04-09T05:46:02.546Z,6.20
2023-04-09T05:47:02.101Z,6.18
2023-04-09T05:48:02.345Z,6.22
2023-04-09T05:49:02.098Z,6.20
2023-04-09T05:50:02.320Z,6.23
2023-04-09T05:51:02.072Z,6.17
2023-04-09T05:52:02.678Z,6.20
2023-04-09T05:53:02.528Z,6.13
2023-04-09T05:54:02.651Z,6.12
2023-04-09T05:55:02.331Z,6.10
2023-04-09T05:56:02.562Z,6.07
2023-04-09T05:57:02.316Z,6.05
2023-04-09T05:58:02.288Z,6.08
2023-04-09T05:59:02.689Z,6.14
2023-04-09T06:00:02.764Z,6.15
2023-04-09T06:01:02.690Z,6.13
2023-04-09T06:02:01.901Z,6.15
2023-04-09T06:03:02.195Z,6.16
2023-04-09T06:04:02.464Z,6.16
2023-04-09T06:05:02.124Z,6.17
2023-04-09T06:06:01.921Z,6.18
2023-04-09T06:07:01.804Z,6.15
2023-04-09T06:08:01.715Z,6.20
2023-04-09T06:09:01.721Z,6.21
2023-04-09T06:10:02.134Z,6.21
2023-04-09T06:11:02.133Z,6.23
2023-04-09T06:12:01.999Z,6.28
2023-04-09T06:13:02.280Z,6.31
2023-04-09T06:14:02.499Z,6.34
2023-04-09T06:15:01.946Z,6.36
2023-04-09T06:16:02.569Z,6.39
2023-04-09T06:17:02.217Z,6.42
2023-04-09T06:18:02.639Z,6.43
2023-04-09T06:19:02.631Z,6.48
2023-04-09T06:20:02.330Z,6.48
2023-04-09T06:21:02.383Z,6.56
2023-04-09T06:22:02.235Z,6.61
2023-04-09T06:23:02.468Z,6.65
2023-04-09T06:24:02.461Z,6.71
2023-04-09T06:25:02.696Z,6.74
2023-04-09T06:26:02.213Z,6.75
2023-04-09T06:27:02.140Z,6.79
2023-04-09T06:28:02.070Z,6.84
2023-04-09T06:29:02.118Z,6.85
2023-04-09T06:30:02.361Z,6.84
2023-04-09T06:31:02.146Z,6.88
2023-04-09T06:32:02.258Z,6.94
2023-04-09T06:33:02.523Z,7.02
2023-04-09T06:34:02.606Z,7.10
2023-04-09T06:35:02.500Z,7.19
2023-04-09T06:36:02.427Z,7.25
2023-04-09T06:37:01.678Z,7.31
2023-04-09T06:38:01.782Z,7.37
2023-04-09T06:39:01.799Z,7.43
2023-04-09T06:40:01.834Z,7.48
2023-04-09T06:41:02.092Z,7.51
2023-04-09T06:42:02.268Z,7.59
2023-04-09T06:43:02.257Z,7.66
2023-04-09T06:44:02.349Z,7.72
2023-04-09T06:45:02.248Z,7.80
2023-04-09T06:46:02.207Z,7.86
2023-04-09T06:47:02.455Z,7.93
2023-04-09T06:48:02.633Z,8.03
2023-04-09T06:49:02.567Z,8.11
2023-04-09T06:50:02.591Z,8.20
2023-04-09T06:51:02.435Z,8.27
2023-04-09T06:52:02.342Z,8.35
2023-04-09T06:53:02.314Z,8.41
2023-04-09T06:54:02.369Z,8.47
2023-04-09T06:55:02.954Z,8.54
2023-04-09T06:56:02.775Z,8.56
2023-04-09T06:57:01.745Z,8.58
2023-04-09T06:58:02.225Z,8.63
2023-04-09T06:59:01.674Z,8.70
2023-04-09T07:00:01.570Z,8.77
2023-04-09T07:01:01.928Z,8.84
2023-04-09T07:02:03.528Z,8.92
2023-04-09T07:03:03.140Z,9.01
2023-04-09T07:04:03.620Z,9.10
2023-04-09T07:05:02.888Z,9.15
2023-04-09T07:06:03.443Z,9.22
2023-04-09T07:07:02.587Z,9.26
2023-04-09T07:08:02.280Z,9.29
2023-04-09T07:09:02.300Z,9.31
2023-04-09T07:10:02.867Z,9.28
2023-04-09T07:11:02.735Z,9.25
2023-04-09T07:12:02.755Z,9.29
2023-04-09T07:13:02.735Z,9.32
2023-04-09T07:14:02.855Z,9.35
2023-04-09T07:15:02.947Z,9.40
2023-04-09T07:16:02.572Z,9.42
2023-04-09T07:17:03.210Z,9.48
2023-04-09T07:18:03.631Z,9.47
2023-04-09T07:19:03.472Z,9.50
2023-04-09T07:20:03.431Z,9.54
2023-04-09T07:21:04.397Z,9.54
2023-04-09T07:22:03.213Z,9.54
2023-04-09T07:23:03.577Z,9.59
2023-04-09T07:24:03.492Z,9.67
2023-04-09T07:25:03.312Z,9.71
2023-04-09T07:26:03.414Z,9.78
2023-04-09T07:27:02.564Z,9.85
2023-04-09T07:28:02.836Z,9.91
2023-04-09T07:29:02.810Z,9.99
2023-04-09T07:30:02.785Z,10.09
2023-04-09T07:31:02.487Z,10.18
2023-04-09T07:32:03.270Z,10.26
2023-04-09T07:33:03.023Z,10.35
2023-04-09T07:34:03.059Z,10.44
2023-04-09T07:35:03.177Z,10.54
2023-04-09T07:36:03.345Z,10.65
2023-04-09T07:37:02.843Z,10.71
2023-04-09T07:38:03.030Z,10.78
2023-04-09T07:39:02.468Z,10.87
2023-04-09T07:40:03.088Z,10.95
2023-04-09T07:41:02.624Z,10.96
2023-04-09T07:42:03.403Z,11.04
2023-04-09T07:43:03.325Z,10.99
2023-04-09T07:44:03.099Z,11.01
2023-04-09T07:45:03.262Z,11.03
2023-04-09T07:46:03.604Z,11.01
2023-04-09T07:47:02.836Z,11.04
2023-04-09T07:48:02.928Z,11.02
2023-04-09T07:49:02.497Z,11.03
2023-04-09T07:50:02.598Z,11.04
2023-04-09T07:51:02.568Z,11.12
2023-04-09T07:52:03.268Z,11.18
2023-04-09T07:53:03.392Z,11.28
2023-04-09T07:54:03.461Z,11.31
2023-04-09T07:55:03.028Z,11.34
2023-04-09T07:56:03.396Z,11.36
2023-04-09T07:57:03.345Z,11.41
2023-04-09T07:58:03.190Z,11.43
2023-04-09T07:59:03.588Z,11.47
2023-04-09T08:00:02.955Z,11.51
2023-04-09T08:01:03.222Z,11.53
2023-04-09T08:02:02.802Z,11.53
2023-04-09T08:03:03.065Z,11.57
2023-04-09T08:04:03.268Z,11.60
2023-04-09T08:05:02.749Z,11.59
2023-04-09T08:06:02.868Z,11.67
2023-04-09T08:07:03.003Z,11.71
2023-04-09T08:08:03.107Z,11.78
2023-04-09T08:09:02.926Z,11.85
2023-04-09T08:10:03.052Z,11.91
2023-04-09T08:11:03.146Z,11.96
2023-04-09T08:12:02.673Z,12.03
2023-04-09T08:13:02.434Z,12.12
2023-04-09T08:14:02.421Z,12.21
2023-04-09T08:15:02.537Z,12.29
2023-04-09T08:16:02.587Z,12.33
2023-04-09T08:17:02.314Z,12.31
2023-04-09T08:18:02.043Z,12.30
2023-04-09T08:19:02.375Z,12.32
2023-04-09T08:20:02.110Z,12.34
2023-04-09T08:21:01.882Z,12.41
2023-04-09T08:22:02.872Z,12.45
2023-04-09T08:23:02.349Z,12.46
2023-04-09T08:24:02.305Z,12.54
2023-04-09T08:25:03.039Z,12.62
2023-04-09T08:26:02.965Z,12.71
2023-04-09T08:27:02.250Z,12.79
2023-04-09T08:28:01.870Z,12.87
2023-04-09T08:29:01.833Z,12.94
2023-04-09T08:30:01.954Z,12.99
2023-04-09T08:31:02.278Z,13.07
2023-04-09T08:32:02.839Z,13.13
2023-04-09T08:33:02.245Z,13.19
2023-04-09T08:34:02.655Z,13.18
2023-04-09T08:35:02.579Z,13.21
2023-04-09T08:36:03.455Z,13.30
2023-04-09T08:37:01.783Z,13.26
2023-04-09T08:38:02.163Z,13.34
2023-04-09T08:39:02.186Z,13.41
2023-04-09T08:40:02.331Z,13.46
2023-04-09T08:41:02.109Z,13.48
2023-04-09T08:42:02.919Z,13.46
2023-04-09T08:43:02.273Z,13.47
2023-04-09T08:44:02.947Z,13.44
2023-04-09T08:45:02.858Z,13.40
2023-04-09T08:46:02.637Z,13.32
2023-04-09T08:47:01.757Z,13.32
2023-04-09T08:48:01.993Z,13.25
2023-04-09T08:49:02.246Z,13.14
2023-04-09T08:50:02.098Z,13.13
2023-04-09T08:51:02.242Z,13.19
2023-04-09T08:52:02.235Z,13.28
2023-04-09T08:53:02.216Z,13.29
2023-04-09T08:54:04.660Z,13.23
2023-04-09T08:55:02.536Z,13.29
2023-04-09T08:56:02.766Z,13.38
2023-04-09T08:57:01.816Z,13.36
2023-04-09T08:58:01.911Z,13.30
2023-04-09T08:59:02.056Z,13.22
2023-04-09T09:00:01.993Z,13.31
2023-04-09T09:01:01.815Z,13.40
2023-04-09T09:02:02.233Z,13.50
2023-04-09T09:03:02.667Z,13.48
2023-04-09T09:04:02.863Z,13.54
2023-04-09T09:05:02.716Z,13.55
2023-04-09T09:06:02.204Z,13.54
2023-04-09T09:07:02.332Z,13.56
2023-04-09T09:08:02.296Z,13.65
2023-04-09T09:09:02.687Z,13.61
2023-04-09T09:10:02.711Z,13.67
2023-04-09T09:11:02.651Z,13.72
2023-04-09T09:12:03.289Z,13.77
2023-04-09T09:13:03.373Z,13.78
2023-04-09T09:14:03.111Z,13.82
2023-04-09T09:15:02.864Z,13.71
2023-04-09T09:16:02.986Z,13.73
2023-04-09T09:17:02.037Z,13.78
2023-04-09T09:18:02.052Z,13.88
2023-04-09T09:19:02.442Z,13.88
2023-04-09T09:20:01.950Z,13.86
2023-04-09T09:21:01.964Z,13.93
2023-04-09T09:22:02.070Z,13.99
2023-04-09T09:23:02.345Z,14.06
2023-04-09T09:24:02.359Z,14.08
2023-04-09T09:25:02.316Z,14.14
2023-04-09T09:26:01.998Z,14.22
2023-04-09T09:27:02.324Z,14.30
2023-04-09T09:28:02.737Z,14.34
2023-04-09T09:29:02.552Z,14.19
2023-04-09T09:30:02.649Z,14.15
2023-04-09T09:31:02.769Z,14.00
2023-04-09T09:32:02.517Z,13.95
2023-04-09T09:33:02.546Z,13.90
2023-04-09T09:34:02.490Z,13.85
2023-04-09T09:35:02.479Z,13.82
2023-04-09T09:36:02.670Z,13.82
2023-04-09T09:37:02.653Z,13.90
2023-04-09T09:38:02.683Z,13.96
2023-04-09T09:39:03.061Z,14.00
2023-04-09T09:40:02.972Z,14.04
2023-04-09T09:41:02.523Z,14.08
2023-04-09T09:42:02.209Z,14.06
2023-04-09T09:43:02.283Z,14.15
2023-04-09T09:44:02.406Z,14.26
2023-04-09T09:45:02.465Z,14.31
2023-04-09T09:46:02.337Z,14.41
2023-04-09T09:47:02.434Z,14.44
2023-04-09T09:48:02.810Z,14.44
2023-04-09T09:49:02.275Z,14.47
2023-04-09T09:50:02.442Z,14.27
2023-04-09T09:51:02.536Z,14.16
2023-04-09T09:52:02.622Z,14.20
2023-04-09T09:53:02.597Z,14.22
2023-04-09T09:54:02.611Z,14.25
2023-04-09T09:55:02.723Z,14.30
2023-04-09T09:56:02.810Z,14.21
2023-04-09T09:57:02.992Z,14.15
2023-04-09T09:58:02.901Z,14.14
2023-04-09T09:59:03.385Z,14.19
2023-04-09T10:00:03.270Z,14.26
2023-04-09T10:01:02.942Z,14.32
2023-04-09T10:02:02.829Z,14.31
2023-04-09T10:03:02.987Z,14.34
2023-04-09T10:04:02.848Z,14.42
2023-04-09T10:05:03.059Z,14.49
2023-04-09T10:06:03.030Z,14.60
2023-04-09T10:07:03.199Z,14.64
2023-04-09T10:08:03.423Z,14.70
2023-04-09T10:09:03.288Z,14.72
2023-04-09T10:10:03.125Z,14.72
2023-04-09T10:11:02.963Z,14.78
2023-04-09T10:12:02.855Z,14.75
2023-04-09T10:13:03.045Z,14.61
2023-04-09T10:14:02.693Z,14.46
2023-04-09T10:15:02.955Z,14.39
2023-04-09T10:16:03.264Z,14.35
2023-04-09T10:17:02.375Z,14.44
2023-04-09T10:18:02.373Z,14.50
2023-04-09T10:19:02.481Z,14.49
2023-04-09T10:20:02.659Z,14.57
2023-04-09T10:21:02.535Z,14.64
2023-04-09T10:22:02.713Z,14.73
2023-04-09T10:23:02.976Z,14.81
2023-04-09T10:24:03.025Z,14.91
2023-04-09T10:25:02.388Z,14.99
2023-04-09T10:26:02.509Z,15.12
2023-04-09T10:27:03.327Z,15.21
2023-04-09T10:28:03.495Z,15.27
2023-04-09T10:29:03.632Z,15.31
2023-04-09T10:30:03.379Z,15.31
2023-04-09T10:31:03.067Z,15.34
2023-04-09T10:32:02.488Z,15.33
2023-04-09T10:33:02.595Z,15.28
2023-04-09T10:34:02.709Z,15.20
2023-04-09T10:35:03.055Z,15.06
2023-04-09T10:36:02.989Z,14.96
2023-04-09T10:37:02.549Z,14.77
2023-04-09T10:38:02.494Z,14.78
2023-04-09T10:39:02.550Z,14.83
2023-04-09T10:40:02.605Z,14.89
2023-04-09T10:41:02.719Z,14.93
2023-04-09T10:42:03.099Z,14.95
2023-04-09T10:43:03.011Z,14.90
2023-04-09T10:44:03.146Z,14.85
2023-04-09T10:45:03.222Z,14.88
2023-04-09T10:46:02.653Z,14.88
2023-04-09T10:47:02.725Z,14.92
2023-04-09T10:48:02.296Z,14.97
2023-04-09T10:49:02.836Z,14.99
2023-04-09T10:50:02.735Z,14.97
2023-04-09T10:51:02.754Z,14.91
2023-04-09T10:52:02.913Z,14.85
2023-04-09T10:53:02.733Z,14.79
2023-04-09T10:54:02.536Z,14.83
2023-04-09T10:55:02.635Z,14.87
2023-04-09T10:56:02.766Z,14.95
2023-04-09T10:57:03.186Z,14.98
2023-04-09T10:58:03.297Z,15.01
2023-04-09T10:59:03.378Z,15.10
2023-04-09T11:00:03.224Z,15.14
2023-04-09T11:01:03.213Z,15.25
2023-04-09T11:02:03.033Z,15.31
2023-04-09T11:03:02.846Z,15.31
2023-04-09T11:04:02.877Z,15.25
2023-04-09T11:05:02.776Z,15.14
2023-04-09T11:06:02.953Z,15.05
2023-04-09T11:07:03.406Z,15.05
2023-04-09T11:08:03.527Z,15.11
2023-04-09T11:09:03.457Z,15.18
2023-04-09T11:10:03.309Z,15.24
2023-04-09T11:11:03.511Z,15.29
2023-04-09T11:12:03.455Z,15.15
2023-04-09T11:13:03.125Z,14.97
2023-04-09T11:14:02.986Z,15.00
2023-04-09T11:15:03.143Z,14.99
2023-04-09T11:16:03.432Z,14.94
2023-04-09T11:17:03.031Z,14.90
2023-04-09T11:18:02.663Z,14.85
2023-04-09T11:19:02.718Z,14.86
2023-04-09T11:20:02.786Z,14.80
2023-04-09T11:21:02.999Z,14.74
2023-04-09T11:22:03.160Z,14.77
2023-04-09T11:23:03.030Z,14.71
2023-04-09T11:24:03.053Z,14.73
2023-04-09T11:25:02.717Z,14.78
2023-04-09T11:26:02.785Z,14.72
2023-04-09T11:27:03.515Z,14.68
2023-04-09T11:28:03.360Z,14.75
2023-04-09T11:29:03.275Z,14.79
2023-04-09T11:30:03.292Z,14.83
2023-04-09T11:31:03.507Z,14.87
2023-04-09T11:32:02.137Z,14.91
2023-04-09T11:33:02.381Z,14.97
2023-04-09T11:34:02.416Z,15.01
2023-04-09T11:35:02.477Z,15.03
2023-04-09T11:36:02.250Z,15.06
2023-04-09T11:37:02.621Z,15.12
2023-04-09T11:38:02.861Z,15.15
2023-04-09T11:39:02.838Z,15.17
2023-04-09T11:40:03.275Z,15.15
2023-04-09T11:41:03.264Z,15.11
2023-04-09T11:42:02.829Z,15.11
2023-04-09T11:43:03.139Z,15.11
2023-04-09T11:44:02.912Z,15.12
2023-04-09T11:45:02.987Z,15.16
2023-04-09T11:46:03.185Z,15.18
2023-04-09T11:47:03.533Z,15.23
2023-04-09T11:48:02.825Z,15.23
2023-04-09T11:49:02.976Z,15.23
2023-04-09T11:50:02.487Z,15.24
2023-04-09T11:51:02.624Z,15.27
2023-04-09T11:52:02.675Z,15.28
2023-04-09T11:53:03.388Z,15.20
2023-04-09T11:54:03.422Z,15.14
2023-04-09T11:55:03.430Z,15.15
2023-04-09T11:56:03.510Z,15.19
2023-04-09T11:57:03.423Z,15.15
2023-04-09T11:58:03.224Z,15.15
2023-04-09T11:59:03.167Z,15.16
2023-04-09T12:00:05.210Z,15.21
2023-04-09T12:01:03.076Z,15.31
2023-04-09T12:02:03.357Z,15.40
2023-04-09T12:03:03.658Z,15.48
2023-04-09T12:04:03.445Z,15.53
2023-04-09T12:05:03.056Z,15.59
2023-04-09T12:06:03.579Z,15.66
2023-04-09T12:07:02.905Z,15.66
2023-04-09T12:08:02.950Z,15.72
2023-04-09T12:09:02.751Z,15.78
2023-04-09T12:10:02.602Z,15.77
2023-04-09T12:11:02.926Z,15.73
2023-04-09T12:12:02.855Z,15.67
2023-04-09T12:13:02.010Z,15.64
2023-04-09T12:14:02.040Z,15.59
2023-04-09T12:15:02.129Z,15.50
2023-04-09T12:16:02.302Z,15.48
2023-04-09T12:17:02.539Z,15.43
2023-04-09T12:18:03.287Z,15.36
2023-04-09T12:19:03.163Z,15.31
2023-04-09T12:20:02.839Z,15.27
2023-04-09T12:21:02.949Z,15.22
2023-04-09T12:22:02.860Z,15.26
2023-04-09T12:23:02.347Z,15.32
2023-04-09T12:24:02.454Z,15.39
2023-04-09T12:25:02.650Z,15.45
2023-04-09T12:26:02.722Z,15.53
2023-04-09T12:27:02.172Z,15.43
2023-04-09T12:28:03.047Z,15.45
2023-04-09T12:29:02.919Z,15.48
2023-04-09T12:30:03.020Z,15.54
2023-04-09T12:31:02.785Z,15.54
2023-04-09T12:32:02.682Z,15.48
2023-04-09T12:33:02.897Z,15.44
2023-04-09T12:34:03.063Z,15.44
2023-04-09T12:35:02.903Z,15.49
2023-04-09T12:36:03.199Z,15.49
2023-04-09T12:37:02.875Z,15.55
2023-04-09T12:38:02.490Z,15.56
2023-04-09T12:39:02.604Z,15.52
2023-04-09T12:40:02.735Z,15.46
2023-04-09T12:41:02.677Z,15.43
2023-04-09T12:42:02.477Z,15.37
2023-04-09T12:43:02.990Z,15.29
2023-04-09T12:44:02.767Z,15.22
2023-04-09T12:45:02.739Z,15.14
2023-04-09T12:46:02.920Z,15.12
2023-04-09T12:47:03.134Z,15.09
2023-04-09T12:48:02.925Z,15.13
2023-04-09T12:49:02.503Z,15.17
2023-04-09T12:50:02.723Z,15.21
2023-04-09T12:51:02.772Z,15.10
2023-04-09T12:52:02.393Z,15.02
2023-04-09T12:53:03.200Z,15.00
2023-04-09T12:54:02.764Z,14.95
2023-04-09T12:55:03.069Z,15.01
2023-04-09T12:56:02.560Z,15.00
2023-04-09T12:57:03.044Z,15.06
2023-04-09T12:58:02.267Z,15.13
2023-04-09T12:59:02.705Z,15.21
2023-04-09T13:00:02.745Z,15.25
2023-04-09T13:01:02.747Z,15.28
2023-04-09T13:02:02.552Z,15.29
2023-04-09T13:03:02.629Z,15.31
2023-04-09T13:04:02.971Z,15.30
2023-04-09T13:05:02.773Z,15.31
2023-04-09T13:06:03.024Z,15.29
2023-04-09T13:07:02.997Z,15.22